createdAt,value
2022-10-15T00:09:08.364Z,84
2022-10-15T00:19:14.793Z,84
2022-10-15T00:29:21.424Z,76
2022-10-15T00:39:27.686Z,76
2022-10-15T00:49:33.627Z,76
2022-10-15T00:59:39.539Z,76
2022-10-15T01:09:45.729Z,76
2022-10-15T01:19:51.877Z,78
2022-10-15T01:29:58.161Z,84
2022-10-15T01:40:04.609Z,78
2022-10-15T01:50:11.171Z,78
2022-10-15T02:00:17.739Z,78
2022-10-15T02:10:23.549Z,78
2022-10-15T02:20:29.678Z,78
2022-10-15T02:30:35.737Z,78
2022-10-15T02:40:42.278Z,82
2022-10-15T02:50:48.526Z,82
2022-10-15T03:00:54.857Z,78
2022-10-15T03:11:01.067Z,80
2022-10-15T03:21:07.099Z,78
2022-10-15T03:31:13.854Z,78
2022-10-15T03:41:20.039Z,78
2022-10-15T03:51:30.676Z,78
2022-10-15T04:01:38.686Z,82
2022-10-15T04:11:45.870Z,78
2022-10-15T04:21:52.684Z,78
2022-10-15T04:31:58.873Z,78
2022-10-15T04:42:05.083Z,82
2022-10-15T04:52:11.603Z,78
2022-10-15T05:02:17.413Z,82
2022-10-15T05:12:24.401Z,82
2022-10-15T05:22:30.809Z,82
2022-10-15T05:32:37.819Z,78
2022-10-15T05:42:44.078Z,78
2022-10-15T05:52:51.109Z,78
2022-10-15T06:02:57.968Z,78
2022-10-15T06:13:05.177Z,82
2022-10-15T06:23:12.306Z,78
2022-10-15T06:33:19.024Z,78
2022-10-15T06:43:28.705Z,80
2022-10-15T06:53:38.344Z,80
2022-10-15T07:03:45.488Z,82
2022-10-15T07:13:52.243Z,80
2022-10-15T07:23:59.269Z,80
2022-10-15T07:34:05.930Z,78
2022-10-15T07:44:12.956Z,82
2022-10-15T07:54:19.946Z,76
2022-10-15T08:04:26.895Z,80
2022-10-15T08:14:34.310Z,84
2022-10-15T08:24:40.872Z,80
2022-10-15T08:34:47.687Z,78
2022-10-15T08:44:54.356Z,78
2022-10-15T08:55:00.764Z,80
2022-10-15T09:05:07.659Z,78
2022-10-15T09:15:14.450Z,78
2022-10-15T09:25:21.209Z,78
2022-10-15T09:35:27.343Z,82
2022-10-15T09:45:33.914Z,80
2022-10-15T09:55:39.891Z,80
2022-10-15T10:05:45.923Z,78
2022-10-15T10:15:57.501Z,78
2022-10-15T10:26:03.281Z,78
2022-10-15T10:46:17.246Z,82
2022-10-15T10:56:24.411Z,78
2022-10-15T11:06:31.123Z,76
2022-10-15T11:16:37.919Z,82
2022-10-15T11:26:52.451Z,80
2022-10-15T11:36:55.628Z,82
2022-10-15T11:47:02.175Z,78
2022-10-15T11:57:08.686Z,82
2022-10-15T12:07:14.543Z,78
2022-10-15T12:17:20.713Z,84
2022-10-15T12:27:27.392Z,84
2022-10-15T12:37:34.314Z,82
2022-10-15T12:47:41.275Z,84
2022-10-15T12:57:48.260Z,86
2022-10-15T13:07:55.311Z,86
2022-10-15T13:18:02.507Z,86
2022-10-15T13:28:13.292Z,86
2022-10-15T13:38:20.625Z,86
2022-10-15T13:48:27.459Z,86
2022-10-15T13:58:33.818Z,86
2022-10-15T14:08:40.190Z,86
2022-10-15T14:18:49.179Z,86
2022-10-15T14:28:56.022Z,86
2022-10-15T14:39:02.793Z,84
2022-10-15T14:49:09.628Z,86
2022-10-15T14:59:16.475Z,86
2022-10-15T15:09:22.996Z,86
2022-10-15T15:19:29.694Z,86
2022-10-15T15:29:36.066Z,88
2022-10-15T15:39:42.556Z,86
2022-10-15T15:49:49.329Z,86
2022-10-15T15:59:56.183Z,86
2022-10-15T16:10:02.892Z,84
2022-10-15T16:20:09.783Z,88
2022-10-15T16:30:16.376Z,84
2022-10-15T16:40:23.387Z,84
2022-10-15T16:50:30.524Z,86
2022-10-15T17:00:37.370Z,86
2022-10-15T17:10:44.521Z,86
2022-10-15T17:20:51.505Z,86
2022-10-15T17:30:58.667Z,86
2022-10-15T17:41:05.384Z,90
2022-10-15T17:51:11.858Z,86
2022-10-15T18:01:27.938Z,84
2022-10-15T18:11:29.171Z,84
2022-10-15T18:21:36.094Z,86
2022-10-15T18:31:42.272Z,86
2022-10-15T18:41:48.297Z,86
2022-10-15T18:51:55.469Z,84
2022-10-15T19:02:02.535Z,86
2022-10-15T19:12:09.832Z,84
2022-10-15T19:22:16.824Z,86
2022-10-15T19:32:23.485Z,86
2022-10-15T19:42:30.532Z,86
2022-10-15T19:52:37.689Z,86
2022-10-15T20:02:44.527Z,84
2022-10-15T20:12:51.536Z,86
2022-10-15T20:22:59.049Z,82
2022-10-15T20:33:05.929Z,84
2022-10-15T20:43:12.417Z,82
2022-10-15T20:53:19.395Z,84
2022-10-15T21:03:26.631Z,84
2022-10-15T21:13:33.541Z,86
2022-10-15T21:23:41.407Z,84
2022-10-15T21:33:48.250Z,78
2022-10-15T21:43:54.893Z,78
2022-10-15T21:54:02.016Z,82
2022-10-15T22:04:08.896Z,84
2022-10-15T22:14:16.043Z,86
2022-10-15T22:24:23.164Z,86
2022-10-15T22:34:30.304Z,86
2022-10-15T22:44:37.350Z,86
2022-10-15T22:54:44.104Z,84
2022-10-15T23:04:51.155Z,86
2022-10-15T23:14:58.197Z,88
2022-10-15T23:25:05.579Z,88
2022-10-15T23:35:12.671Z,88
2022-10-15T23:45:19.541Z,88
2022-10-15T23:55:26.826Z,88
